Time;durP1;ratioP1;P1;durP2;ratioP2;P2;SDS_P1;SDS_P2;PMS_P1;PMS_P2;Temp;Humidity;BMP_temperature;BMP_pressure;BME280_temperature;BME280_humidity;BME280_pressure;Samples;Min_cycle;Max_cycle;Signal;HPM_P1;HPM_P2
2023/12/21 00:01:43;;;;;;;0.30;0.30;;;6.30;99.90;;;;;;4964272;28;20630;-82
2023/12/21 00:04:09;;;;;;;0.40;0.40;;;6.30;99.90;;;;;;4966038;28;21234;-83
2023/12/21 00:06:35;;;;;;;0.90;0.40;;;6.40;99.90;;;;;;4976288;28;20179;-78
2023/12/21 00:09:00;;;;;;;0.40;0.30;;;6.40;99.90;;;;;;4993213;28;20860;-81
2023/12/21 00:11:26;;;;;;;0.60;0.30;;;6.40;99.90;;;;;;4973772;28;20218;-82
2023/12/21 00:13:52;;;;;;;0.32;0.30;;;6.40;99.90;;;;;;4976531;28;20215;-82
2023/12/21 00:16:17;;;;;;;0.30;0.27;;;6.40;99.90;;;;;;4982120;28;20194;-85
2023/12/21 00:18:43;;;;;;;1.30;0.53;;;6.50;99.90;;;;;;5005264;28;20219;-85
2023/12/21 00:21:08;;;;;;;2.20;0.27;;;6.50;99.90;;;;;;4988827;28;20194;-84
2023/12/21 00:23:34;;;;;;;0.53;0.40;;;6.50;99.90;;;;;;4971395;28;20199;-78
2023/12/21 00:26:01;;;;;;;0.30;0.20;;;6.40;99.90;;;;;;4977147;28;20195;-85
2023/12/21 00:28:26;;;;;;;0.40;0.30;;;6.40;99.90;;;;;;4959019;28;21003;-83
2023/12/21 00:30:52;;;;;;;0.30;0.20;;;6.50;99.90;;;;;;4970690;28;20205;-84
2023/12/21 00:33:17;;;;;;;0.40;0.30;;;6.50;99.90;;;;;;4996610;28;20882;-83
2023/12/21 00:35:43;;;;;;;0.30;0.30;;;6.50;99.90;;;;;;4983825;28;20665;-81
2023/12/21 00:38:09;;;;;;;0.40;0.30;;;6.60;99.90;;;;;;5002394;28;20207;-83
2023/12/21 00:40:35;;;;;;;0.30;0.28;;;6.60;99.90;;;;;;4985392;28;20572;-83
2023/12/21 00:43:00;;;;;;;0.30;0.30;;;7.50;99.90;;;;;;4982108;28;20199;-81
2023/12/21 00:45:26;;;;;;;0.30;0.30;;;6.70;99.90;;;;;;4982523;28;20239;-81
2023/12/21 00:47:52;;;;;;;0.40;0.30;;;6.70;99.90;;;;;;5008986;28;20210;-78
2023/12/21 00:50:17;;;;;;;0.30;0.20;;;6.70;99.90;;;;;;4979430;28;20187;-83
2023/12/21 00:52:43;;;;;;;0.30;0.20;;;6.70;99.90;;;;;;4991403;28;20474;-80
2023/12/21 00:55:09;;;;;;;0.40;0.30;;;6.70;99.90;;;;;;4979632;28;20183;-84
2023/12/21 00:57:34;;;;;;;0.30;0.23;;;6.70;99.90;;;;;;5013150;28;20199;-80
2023/12/21 01:00:00;;;;;;;0.30;0.20;;;6.80;99.90;;;;;;4986425;28;20452;-84
2023/12/21 01:02:26;;;;;;;0.40;0.30;;;6.80;99.90;;;;;;4992557;28;20187;-78
2023/12/21 01:04:52;;;;;;;0.60;0.60;;;6.80;99.90;;;;;;4984268;28;20191;-85
2023/12/21 01:07:17;;;;;;;0.30;0.20;;;6.90;99.90;;;;;;4981168;28;20202;-85
2023/12/21 01:09:43;;;;;;;0.40;0.20;;;6.80;99.90;;;;;;4971815;28;20276;-79
2023/12/21 01:12:09;;;;;;;0.50;0.40;;;6.80;99.90;;;;;;4985832;28;20581;-81
2023/12/21 01:14:34;;;;;;;0.70;0.37;;;6.80;99.90;;;;;;4973364;28;20724;-84
2023/12/21 01:17:00;;;;;;;0.30;0.20;;;6.90;99.90;;;;;;4984337;28;20233;-80
2023/12/21 01:19:26;;;;;;;0.30;0.30;;;6.80;99.90;;;;;;4982750;28;20215;-85
2023/12/21 01:21:52;;;;;;;0.50;0.30;;;6.80;99.90;;;;;;4977025;28;20206;-82
2023/12/21 01:24:17;;;;;;;0.30;0.20;;;6.80;99.90;;;;;;4994868;28;20222;-85
2023/12/21 01:26:43;;;;;;;0.30;0.30;;;6.80;99.90;;;;;;4989255;28;20188;-80
2023/12/21 01:29:08;;;;;;;0.37;0.30;;;6.80;99.90;;;;;;4985951;28;20242;-84
2023/12/21 01:31:34;;;;;;;0.30;0.20;;;6.80;99.90;;;;;;4975072;28;20207;-82
2023/12/21 01:34:01;;;;;;;0.50;0.30;;;6.80;99.90;;;;;;4976811;28;20207;-84
2023/12/21 01:36:27;;;;;;;0.40;0.30;;;6.80;99.90;;;;;;4979203;28;20267;-80
2023/12/21 01:38:52;;;;;;;0.30;0.20;;;6.90;99.90;;;;;;4966938;28;20214;-81
2023/12/21 01:41:18;;;;;;;0.40;0.30;;;;;;;;;;4976081;28;20194;-86
2023/12/21 01:43:44;;;;;;;0.40;0.30;;;6.90;99.90;;;;;;4983647;28;20197;-85
2023/12/21 01:46:09;;;;;;;0.30;0.20;;;6.90;99.90;;;;;;4962077;28;21188;-85
2023/12/21 01:48:36;;;;;;;0.30;0.30;;;6.90;99.90;;;;;;4966386;28;20300;-82
2023/12/21 01:51:02;;;;;;;0.30;0.30;;;6.90;99.90;;;;;;4971737;28;20754;-84
2023/12/21 01:53:29;;;;;;;0.60;0.40;;;6.90;99.90;;;;;;4977893;28;20219;-78
2023/12/21 01:55:55;;;;;;;0.30;0.22;;;6.90;99.90;;;;;;4979549;28;20184;-85
2023/12/21 01:58:22;;;;;;;0.65;0.57;;;7.00;99.90;;;;;;4978968;28;20729;-79
2023/12/21 02:00:48;;;;;;;0.35;0.25;;;7.00;99.90;;;;;;4973844;28;20578;-85
2023/12/21 02:03:15;;;;;;;0.40;0.30;;;7.00;99.90;;;;;;4963079;28;20336;-80
2023/12/21 02:05:40;;;;;;;0.30;0.20;;;7.00;99.90;;;;;;4976949;28;20197;-80
2023/12/21 02:08:06;;;;;;;0.40;0.30;;;7.00;99.90;;;;;;4949957;28;20567;-83
2023/12/21 02:10:32;;;;;;;0.73;0.50;;;7.00;99.90;;;;;;4991918;28;20187;-80
2023/12/21 02:12:58;;;;;;;1.10;0.30;;;7.10;99.90;;;;;;4979686;28;20268;-84
2023/12/21 02:15:23;;;;;;;0.37;0.33;;;7.10;99.90;;;;;;4980481;28;20918;-81
2023/12/21 02:17:51;;;;;;;0.30;0.20;;;7.10;99.90;;;;;;4981515;28;23184;-81
2023/12/21 02:20:17;;;;;;;0.68;0.50;;;7.10;99.90;;;;;;4977059;28;20257;-81
2023/12/21 02:22:46;;;;;;;0.47;0.32;;;7.10;99.90;;;;;;4985749;28;20202;-83
2023/12/21 02:25:12;;;;;;;0.30;0.20;;;7.10;99.90;;;;;;4986220;28;20499;-77
2023/12/21 02:27:38;;;;;;;0.30;0.30;;;7.20;99.90;;;;;;4998882;28;20705;-81
2023/12/21 02:30:04;;;;;;;0.30;0.20;;;7.20;99.90;;;;;;4975481;28;20184;-84
2023/12/21 02:32:29;;;;;;;0.40;0.30;;;7.20;99.90;;;;;;4979802;28;20215;-82
2023/12/21 02:34:55;;;;;;;0.40;0.30;;;7.20;99.90;;;;;;4995484;28;20453;-83
2023/12/21 02:37:20;;;;;;;0.40;0.30;;;7.20;99.90;;;;;;4980308;28;20546;-80
2023/12/21 02:39:46;;;;;;;0.37;0.37;;;7.30;99.90;;;;;;4983905;28;20214;-82
2023/12/21 02:42:11;;;;;;;0.40;0.30;;;7.30;99.90;;;;;;4967632;28;20670;-79
2023/12/21 02:44:37;;;;;;;0.30;0.20;;;7.40;99.90;;;;;;4976850;28;20250;-83
2023/12/21 02:47:03;;;;;;;0.40;0.30;;;7.30;99.90;;;;;;4986832;28;20239;-83
2023/12/21 02:49:28;;;;;;;0.30;0.20;;;7.30;99.90;;;;;;4979262;28;20222;-81
2023/12/21 02:51:55;;;;;;;0.30;0.20;;;7.30;99.90;;;;;;4984656;28;22955;-82
2023/12/21 02:54:21;;;;;;;0.40;0.30;;;7.40;99.90;;;;;;4968522;28;20229;-84
2023/12/21 02:56:46;;;;;;;0.30;0.20;;;7.40;99.90;;;;;;4964032;28;20183;-86
2023/12/21 02:59:12;;;;;;;0.40;0.40;;;7.40;99.90;;;;;;4966060;28;20470;-79
2023/12/21 03:01:41;;;;;;;0.40;0.30;;;7.40;99.90;;;;;;4981301;28;21309;-83
2023/12/21 03:04:08;;;;;;;0.40;0.30;;;7.40;99.90;;;;;;4989751;28;20191;-84
2023/12/21 03:06:33;;;;;;;0.40;0.30;;;7.40;99.90;;;;;;4967880;28;20199;-84
2023/12/21 03:08:59;;;;;;;0.40;0.20;;;7.40;99.90;;;;;;4975090;28;20223;-83
2023/12/21 03:11:25;;;;;;;0.30;0.20;;;7.50;99.90;;;;;;4979228;28;20190;-83
2023/12/21 03:13:50;;;;;;;0.30;0.20;;;7.50;99.90;;;;;;4995871;28;20209;-80
2023/12/21 03:16:18;;;;;;;0.30;0.30;;;7.50;99.90;;;;;;4994804;28;20619;-78
2023/12/21 03:18:46;;;;;;;0.30;0.30;;;7.50;99.90;;;;;;4983363;28;20333;-83
2023/12/21 03:21:11;;;;;;;0.30;0.30;;;7.50;99.90;;;;;;4956003;28;20195;-84
2023/12/21 03:23:39;;;;;;;0.40;0.30;;;8.00;99.90;;;;;;4982880;28;20279;-84
2023/12/21 03:26:04;;;;;;;0.30;0.30;;;7.50;99.90;;;;;;4984740;28;20233;-85
2023/12/21 03:28:30;;;;;;;0.60;0.60;;;7.50;99.90;;;;;;4987720;28;20823;-85
2023/12/21 03:30:55;;;;;;;0.30;0.30;;;7.50;99.90;;;;;;4970200;28;20198;-82
2023/12/21 03:33:22;;;;;;;0.40;0.30;;;7.50;99.90;;;;;;4980029;28;20268;-82
2023/12/21 03:35:47;;;;;;;0.30;0.20;;;7.50;99.90;;;;;;4986922;28;20190;-82
2023/12/21 03:38:13;;;;;;;0.50;0.37;;;7.50;99.90;;;;;;4976116;28;20744;-84
2023/12/21 03:40:38;;;;;;;0.30;0.20;;;7.50;99.90;;;;;;4980469;28;20190;-81
2023/12/21 03:43:04;;;;;;;0.30;0.20;;;7.50;99.90;;;;;;4966130;28;22006;-80
2023/12/21 03:45:29;;;;;;;0.30;0.30;;;7.50;99.90;;;;;;4971634;28;20259;-86
2023/12/21 03:47:55;;;;;;;0.40;0.30;;;7.50;99.90;;;;;;4954919;28;20206;-81
2023/12/21 03:50:20;;;;;;;0.30;0.20;;;7.50;99.90;;;;;;4977215;28;20190;-85
2023/12/21 03:52:46;;;;;;;0.30;0.20;;;7.50;99.90;;;;;;4965279;28;20265;-82
2023/12/21 03:55:11;;;;;;;0.30;0.20;;;7.50;99.90;;;;;;4962143;28;20611;-83
2023/12/21 03:57:37;;;;;;;0.40;0.30;;;7.50;99.90;;;;;;4976441;28;20259;-83
2023/12/21 04:00:03;;;;;;;0.30;0.20;;;7.50;99.90;;;;;;4982773;28;20186;-80
2023/12/21 04:02:29;;;;;;;0.32;0.30;;;7.50;99.90;;;;;;4981908;28;20197;-84
2023/12/21 04:04:54;;;;;;;0.30;0.20;;;7.50;99.90;;;;;;4983082;28;20191;-82
2023/12/21 04:07:19;;;;;;;0.70;0.40;;;7.40;99.90;;;;;;5000945;28;20195;-85
2023/12/21 04:09:45;;;;;;;0.30;0.20;;;7.60;99.90;;;;;;4978504;28;20212;-84
2023/12/21 04:12:10;;;;;;;0.30;0.20;;;7.50;99.90;;;;;;4985701;28;20195;-83
2023/12/21 04:14:36;;;;;;;0.30;0.30;;;7.50;99.90;;;;;;4974118;28;20238;-85
2023/12/21 04:17:01;;;;;;;0.30;0.20;;;7.50;99.90;;;;;;4978394;28;20232;-82
2023/12/21 04:19:27;;;;;;;0.30;0.20;;;7.50;99.90;;;;;;4988004;28;20598;-82
2023/12/21 04:21:53;;;;;;;0.30;0.30;;;7.50;99.90;;;;;;4974295;28;20674;-79
2023/12/21 04:24:19;;;;;;;0.30;0.20;;;7.60;99.90;;;;;;4994093;28;20209;-79
2023/12/21 04:26:44;;;;;;;0.30;0.30;;;7.60;99.90;;;;;;5011364;28;20235;-81
2023/12/21 04:29:10;;;;;;;0.30;0.20;;;7.60;99.90;;;;;;4997832;28;20308;-84
2023/12/21 04:31:37;;;;;;;0.30;0.20;;;7.60;99.90;;;;;;4985466;28;20683;-82
2023/12/21 04:34:02;;;;;;;0.30;0.20;;;7.60;99.90;;;;;;4975479;28;20814;-81
2023/12/21 04:36:28;;;;;;;0.30;0.20;;;7.60;99.90;;;;;;4987217;28;20266;-84
2023/12/21 04:38:55;;;;;;;0.30;0.20;;;7.60;99.90;;;;;;4984357;28;20302;-82
2023/12/21 04:41:21;;;;;;;0.30;0.20;;;7.50;99.90;;;;;;4958210;28;20186;-82
2023/12/21 04:43:46;;;;;;;0.30;0.30;;;7.60;99.90;;;;;;4984932;28;20194;-82
2023/12/21 04:46:12;;;;;;;0.30;0.20;;;7.50;99.90;;;;;;4997805;28;20209;-82
2023/12/21 04:48:37;;;;;;;0.30;0.20;;;7.50;99.90;;;;;;4969176;28;20218;-85
2023/12/21 04:51:03;;;;;;;0.40;0.30;;;;;;;;;;4972434;28;20209;-83
2023/12/21 04:53:29;;;;;;;0.30;0.20;;;7.50;99.90;;;;;;4988431;28;20213;-83
2023/12/21 04:55:54;;;;;;;0.30;0.20;;;7.50;99.90;;;;;;4955640;28;20196;-83
2023/12/21 04:58:20;;;;;;;0.30;0.20;;;7.50;99.90;;;;;;4980566;28;20711;-82
2023/12/21 05:00:50;;;;;;;0.30;0.20;;;7.50;99.90;;;;;;4984918;28;20194;-85
2023/12/21 05:03:17;;;;;;;0.30;0.20;;;7.50;99.90;;;;;;4981011;28;20198;-83
2023/12/21 05:05:42;;;;;;;0.30;0.20;;;7.50;99.90;;;;;;4977802;28;20668;-80
2023/12/21 05:08:08;;;;;;;0.50;0.30;;;7.60;99.90;;;;;;4988587;28;20221;-78
2023/12/21 05:10:33;;;;;;;0.30;0.20;;;7.60;99.90;;;;;;4983839;28;20199;-86
2023/12/21 05:12:59;;;;;;;0.30;0.20;;;7.70;99.90;;;;;;4969008;28;20215;-82
2023/12/21 05:15:25;;;;;;;0.30;0.20;;;;;;;;;;4978279;28;22068;-82
2023/12/21 05:17:50;;;;;;;0.30;0.20;;;7.70;99.90;;;;;;5000949;28;20340;-83
2023/12/21 05:20:16;;;;;;;0.30;0.30;;;7.80;99.90;;;;;;4980533;28;20516;-86
2023/12/21 05:22:42;;;;;;;0.30;0.20;;;7.80;99.90;;;;;;4982226;28;20754;-80
2023/12/21 05:25:08;;;;;;;0.30;0.20;;;7.80;99.90;;;;;;4996734;28;20205;-86
2023/12/21 05:27:34;;;;;;;0.40;0.30;;;7.80;99.90;;;;;;4974517;28;20199;-85
2023/12/21 05:30:00;;;;;;;0.30;0.20;;;7.80;99.90;;;;;;4967375;28;20191;-82
2023/12/21 05:32:25;;;;;;;0.30;0.20;;;7.90;99.90;;;;;;4989639;28;20186;-77
2023/12/21 05:34:51;;;;;;;0.30;0.30;;;7.80;99.90;;;;;;4993975;28;20198;-87
2023/12/21 05:37:16;;;;;;;0.40;0.20;;;7.90;99.90;;;;;;4989895;28;20252;-84
2023/12/21 05:39:47;;;;;;;0.30;0.20;;;7.90;99.90;;;;;;4981198;28;20669;-81
2023/12/21 05:42:13;;;;;;;0.30;0.30;;;7.90;99.90;;;;;;4967782;28;20187;-87
2023/12/21 05:44:39;;;;;;;0.30;0.20;;;7.90;99.90;;;;;;4979465;28;20216;-80
2023/12/21 05:47:04;;;;;;;0.30;0.30;;;7.90;99.90;;;;;;4978774;28;22109;-82
2023/12/21 05:49:30;;;;;;;0.30;0.30;;;7.90;99.90;;;;;;4959273;28;20203;-83
2023/12/21 05:51:55;;;;;;;0.30;0.20;;;7.90;99.90;;;;;;4956642;28;20255;-85
2023/12/21 05:54:21;;;;;;;0.30;0.20;;;7.90;99.90;;;;;;4984072;28;20222;-84
2023/12/21 05:56:46;;;;;;;0.30;0.20;;;7.80;99.90;;;;;;4987915;28;20207;-83
2023/12/21 05:59:12;;;;;;;0.30;0.30;;;7.90;99.90;;;;;;4980442;28;21752;-84
2023/12/21 06:01:38;;;;;;;0.30;0.20;;;7.90;99.90;;;;;;4972866;28;20283;-81
2023/12/21 06:04:04;;;;;;;0.30;0.25;;;7.90;99.90;;;;;;4979560;28;20321;-80
2023/12/21 06:06:30;;;;;;;2.20;0.30;;;7.90;99.90;;;;;;4977708;28;20201;-81
2023/12/21 06:08:55;;;;;;;0.30;0.20;;;;;;;;;;4972873;28;20289;-84
2023/12/21 06:11:21;;;;;;;0.53;0.37;;;7.90;99.90;;;;;;4963468;28;20199;-85
2023/12/21 06:13:47;;;;;;;0.30;0.20;;;7.90;99.90;;;;;;4967304;28;20480;-81
2023/12/21 06:16:14;;;;;;;0.30;0.20;;;7.90;99.90;;;;;;4980605;28;20317;-87
2023/12/21 06:18:39;;;;;;;0.30;0.20;;;7.90;99.90;;;;;;4973956;28;20816;-86
2023/12/21 06:21:05;;;;;;;0.30;0.20;;;7.90;99.90;;;;;;4976854;28;20191;-83
2023/12/21 06:23:31;;;;;;;0.30;0.20;;;;;;;;;;4962368;28;20225;-84
2023/12/21 06:25:57;;;;;;;0.30;0.20;;;7.90;99.90;;;;;;4977677;28;20808;-86
2023/12/21 06:28:24;;;;;;;0.30;0.20;;;8.40;99.90;;;;;;4977842;28;20481;-84
2023/12/21 06:30:49;;;;;;;0.30;0.20;;;7.80;99.90;;;;;;4971706;28;20206;-80
2023/12/21 06:33:16;;;;;;;0.30;0.20;;;7.80;99.90;;;;;;4980861;28;20218;-80
2023/12/21 06:35:41;;;;;;;0.47;0.40;;;7.80;99.90;;;;;;4973879;28;20190;-82
2023/12/21 06:38:07;;;;;;;0.30;0.30;;;7.90;99.90;;;;;;4957400;28;20218;-83
2023/12/21 06:40:33;;;;;;;0.40;0.30;;;7.90;99.90;;;;;;4976383;28;20282;-84
2023/12/21 06:42:58;;;;;;;0.30;0.27;;;7.80;99.90;;;;;;4980015;28;20229;-81
2023/12/21 06:45:25;;;;;;;0.30;0.20;;;7.90;99.90;;;;;;4968409;28;20226;-84
2023/12/21 06:47:50;;;;;;;0.30;0.20;;;7.90;99.90;;;;;;4968622;28;20217;-84
2023/12/21 06:50:16;;;;;;;0.30;0.20;;;7.80;99.90;;;;;;4973893;28;20699;-82
2023/12/21 06:52:42;;;;;;;0.30;0.20;;;7.80;99.90;;;;;;4963339;28;20210;-85
2023/12/21 06:55:08;;;;;;;0.30;0.20;;;7.90;99.90;;;;;;4955055;28;20524;-85
2023/12/21 06:57:34;;;;;;;0.30;0.30;;;7.90;99.90;;;;;;4976310;28;20198;-84
2023/12/21 06:59:59;;;;;;;0.60;0.30;;;7.90;99.90;;;;;;4967488;28;20214;-85
2023/12/21 07:02:26;;;;;;;0.30;0.20;;;7.90;99.90;;;;;;4979056;28;20186;-86
2023/12/21 07:04:52;;;;;;;0.30;0.20;;;7.90;99.90;;;;;;4973469;28;20265;-82
2023/12/21 07:07:17;;;;;;;0.30;0.20;;;7.70;99.90;;;;;;4966935;28;20199;-84
2023/12/21 07:09:42;;;;;;;0.30;0.30;;;7.90;99.90;;;;;;4964450;28;20301;-85
2023/12/21 07:12:08;;;;;;;0.30;0.30;;;7.90;99.90;;;;;;4957451;28;21042;-85
2023/12/21 07:14:37;;;;;;;0.30;0.20;;;7.90;99.90;;;;;;4973811;28;20284;-84
2023/12/21 07:17:02;;;;;;;0.30;0.30;;;9.80;99.90;;;;;;4981931;28;20187;-83
2023/12/21 07:19:28;;;;;;;0.30;0.20;;;7.90;99.90;;;;;;4962536;28;20241;-83
2023/12/21 07:21:54;;;;;;;0.30;0.20;;;8.00;99.90;;;;;;4979619;28;20246;-83
2023/12/21 07:24:19;;;;;;;0.30;0.30;;;8.00;99.90;;;;;;4978124;28;20248;-84
2023/12/21 07:26:45;;;;;;;0.30;0.30;;;8.00;99.90;;;;;;4982318;28;20980;-84
2023/12/21 07:29:10;;;;;;;0.30;0.20;;;8.00;99.90;;;;;;4978651;28;20214;-83
2023/12/21 07:31:36;;;;;;;0.40;0.40;;;8.00;99.90;;;;;;4973209;28;20415;-85
2023/12/21 07:34:01;;;;;;;0.30;0.20;;;8.00;99.90;;;;;;4970630;28;20319;-85
2023/12/21 07:36:27;;;;;;;0.30;0.20;;;8.00;99.90;;;;;;4978926;28;20195;-84
2023/12/21 07:38:52;;;;;;;0.30;0.20;;;;;;;;;;4964570;28;20215;-84
2023/12/21 07:41:18;;;;;;;0.87;0.40;;;;;;;;;;4975714;28;21122;-84
2023/12/21 07:43:44;;;;;;;0.30;0.30;;;8.00;99.90;;;;;;4986186;28;20967;-83
2023/12/21 07:46:10;;;;;;;0.57;0.50;;;8.10;99.90;;;;;;4979509;28;20446;-83
2023/12/21 07:48:36;;;;;;;0.40;0.38;;;8.10;99.90;;;;;;4966610;28;20486;-80
2023/12/21 07:51:01;;;;;;;0.37;0.30;;;8.10;99.90;;;;;;4995939;28;20230;-82
2023/12/21 07:53:27;;;;;;;0.30;0.30;;;8.10;99.90;;;;;;4975358;28;20253;-85
2023/12/21 07:55:52;;;;;;;1.90;0.40;;;8.10;99.90;;;;;;4984455;28;20731;-86
2023/12/21 07:58:18;;;;;;;0.30;0.20;;;8.10;99.90;;;;;;4971157;28;20297;-84
2023/12/21 08:00:43;;;;;;;0.30;0.30;;;8.20;99.90;;;;;;4967941;28;20227;-84
2023/12/21 08:03:10;;;;;;;0.30;0.20;;;8.10;99.90;;;;;;4970395;28;20202;-85
2023/12/21 08:05:36;;;;;;;0.40;0.30;;;8.20;99.90;;;;;;4969780;28;20295;-85
2023/12/21 08:08:02;;;;;;;0.30;0.20;;;8.20;99.90;;;;;;4971364;28;20219;-85
2023/12/21 08:10:28;;;;;;;0.30;0.30;;;8.20;99.90;;;;;;4989605;28;20283;-85
2023/12/21 08:12:53;;;;;;;0.30;0.20;;;8.20;99.90;;;;;;4970285;28;20750;-86
2023/12/21 08:15:19;;;;;;;0.30;0.20;;;8.20;99.90;;;;;;4962171;28;20738;-85
2023/12/21 08:17:47;;;;;;;0.77;0.50;;;8.20;99.90;;;;;;4965319;28;20188;-81
2023/12/21 08:20:12;;;;;;;0.30;0.20;;;8.20;99.90;;;;;;4963142;28;21080;-86
2023/12/21 08:22:38;;;;;;;0.40;0.40;;;8.30;99.90;;;;;;4959932;28;20198;-85
2023/12/21 08:25:04;;;;;;;0.40;0.30;;;8.30;99.90;;;;;;4940545;28;20193;-85
2023/12/21 08:27:29;;;;;;;0.47;0.37;;;8.30;99.90;;;;;;4964462;28;20195;-81
2023/12/21 08:29:55;;;;;;;0.50;0.30;;;8.30;99.90;;;;;;4973717;28;20304;-82
2023/12/21 08:32:20;;;;;;;0.30;0.30;;;8.40;99.90;;;;;;4971430;28;20221;-85
2023/12/21 08:34:46;;;;;;;0.80;0.30;;;8.40;99.90;;;;;;4950687;28;20573;-86
2023/12/21 08:37:14;;;;;;;0.30;0.30;;;8.40;99.90;;;;;;4960163;28;20211;-82
2023/12/21 08:39:40;;;;;;;0.70;0.52;;;8.40;99.90;;;;;;4965727;28;20211;-83
2023/12/21 08:42:09;;;;;;;0.40;0.30;;;8.40;99.90;;;;;;4960085;28;20183;-83
2023/12/21 08:44:37;;;;;;;0.40;0.30;;;8.50;99.90;;;;;;4963299;28;20287;-82
2023/12/21 08:47:05;;;;;;;0.32;0.28;;;8.40;99.90;;;;;;4967726;28;20198;-82
2023/12/21 08:49:30;;;;;;;0.30;0.20;;;8.50;99.90;;;;;;4971594;28;20272;-83
2023/12/21 08:51:56;;;;;;;0.40;0.30;;;8.50;99.90;;;;;;4970017;28;20209;-85
2023/12/21 08:54:21;;;;;;;0.40;0.37;;;8.50;99.90;;;;;;4968455;28;20215;-83
2023/12/21 08:56:48;;;;;;;0.30;0.20;;;8.50;99.90;;;;;;4989254;28;20195;-79
2023/12/21 08:59:13;;;;;;;0.30;0.22;;;8.50;99.90;;;;;;4972236;28;20580;-81
2023/12/21 09:01:39;;;;;;;0.40;0.30;;;8.60;99.90;;;;;;4977251;28;20598;-86
2023/12/21 09:04:07;;;;;;;0.30;0.20;;;8.60;99.90;;;;;;4973342;28;20218;-82
2023/12/21 09:06:33;;;;;;;0.70;0.47;;;8.60;99.90;;;;;;4989620;28;20191;-84
2023/12/21 09:08:58;;;;;;;0.30;0.30;;;8.60;99.90;;;;;;4947216;28;20245;-84
2023/12/21 09:11:25;;;;;;;0.30;0.30;;;;;;;;;;4967010;28;20290;-84
2023/12/21 09:13:50;;;;;;;0.30;0.30;;;8.70;99.90;;;;;;4967081;28;20222;-82
2023/12/21 09:16:17;;;;;;;0.30;0.30;;;8.70;99.90;;;;;;4971472;28;20187;-85
2023/12/21 09:18:46;;;;;;;0.40;0.40;;;8.70;99.90;;;;;;4963833;28;20218;-83
2023/12/21 09:21:12;;;;;;;0.30;0.20;;;8.80;99.90;;;;;;4974638;28;20312;-81
2023/12/21 09:23:39;;;;;;;0.30;0.20;;;8.70;99.90;;;;;;4967699;28;21013;-83
2023/12/21 09:26:10;;;;;;;0.38;0.30;;;8.80;99.90;;;;;;4981825;28;20191;-86
2023/12/21 09:28:36;;;;;;;0.40;0.30;;;8.80;99.90;;;;;;4978784;28;20302;-83
2023/12/21 09:31:03;;;;;;;0.30;0.20;;;8.80;99.90;;;;;;4966767;28;20209;-86
2023/12/21 09:33:32;;;;;;;0.30;0.20;;;8.80;99.90;;;;;;4984850;28;20222;-85
2023/12/21 09:35:58;;;;;;;0.40;0.30;;;8.80;99.90;;;;;;4969555;28;20186;-81
2023/12/21 09:38:24;;;;;;;0.30;0.20;;;8.80;99.90;;;;;;4968509;28;20210;-83
2023/12/21 09:40:50;;;;;;;0.30;0.20;;;8.80;99.90;;;;;;4967737;28;20190;-83
2023/12/21 09:43:21;;;;;;;0.30;0.20;;;8.80;99.90;;;;;;4969964;28;20532;-79
2023/12/21 09:45:51;;;;;;;0.30;0.20;;;8.90;99.90;;;;;;4976901;28;21126;-84
2023/12/21 09:48:18;;;;;;;0.30;0.20;;;8.90;99.90;;;;;;4973520;28;20268;-83
2023/12/21 09:50:48;;;;;;;0.40;0.30;;;8.90;99.90;;;;;;4991356;28;20310;-86
2023/12/21 09:53:15;;;;;;;0.30;0.30;;;;;;;;;;4973709;28;20245;-85
2023/12/21 09:55:42;;;;;;;0.57;0.30;;;9.00;99.90;;;;;;4980863;28;20189;-85
2023/12/21 09:58:11;;;;;;;0.30;0.20;;;9.00;99.90;;;;;;4979666;28;20214;-84
2023/12/21 10:00:37;;;;;;;0.30;0.20;;;9.00;99.90;;;;;;4980207;28;20183;-84
2023/12/21 10:03:04;;;;;;;0.30;0.30;;;9.00;99.90;;;;;;4982494;28;20195;-79
2023/12/21 10:05:29;;;;;;;0.40;0.40;;;9.00;99.90;;;;;;4988793;28;20206;-82
2023/12/21 10:07:55;;;;;;;0.30;0.20;;;;;;;;;;4980188;28;20199;-82
2023/12/21 10:10:21;;;;;;;0.30;0.27;;;;;;;;;;4967462;28;20471;-82
2023/12/21 10:12:47;;;;;;;0.90;0.30;;;9.00;99.90;;;;;;4964727;28;20445;-83
2023/12/21 10:15:13;;;;;;;0.30;0.20;;;10.50;99.90;;;;;;4965252;28;20449;-83
2023/12/21 10:17:38;;;;;;;2.00;0.50;;;9.00;99.90;;;;;;4974287;28;20198;-87
2023/12/21 10:20:05;;;;;;;0.30;0.20;;;9.10;99.90;;;;;;4972091;28;20206;-86
2023/12/21 10:22:32;;;;;;;0.63;0.40;;;9.10;99.90;;;;;;4979337;28;20297;-84
2023/12/21 10:24:59;;;;;;;0.30;0.20;;;9.10;99.90;;;;;;4970710;28;20559;-85
2023/12/21 10:27:25;;;;;;;0.30;0.20;;;9.10;99.90;;;;;;4974493;28;20201;-84
2023/12/21 10:29:53;;;;;;;0.30;0.30;;;9.20;99.90;;;;;;4967015;28;20214;-82
2023/12/21 10:32:18;;;;;;;0.40;0.30;;;9.20;99.90;;;;;;4978947;28;20186;-83
2023/12/21 10:34:44;;;;;;;1.43;0.50;;;9.30;99.90;;;;;;4971864;28;20207;-85
2023/12/21 10:37:09;;;;;;;0.30;0.20;;;9.20;99.90;;;;;;4974847;28;20191;-83
2023/12/21 10:39:35;;;;;;;0.30;0.20;;;9.30;99.90;;;;;;4974006;28;20662;-84
2023/12/21 10:42:01;;;;;;;0.40;0.30;;;9.30;99.90;;;;;;4983881;28;20297;-81
2023/12/21 10:44:27;;;;;;;0.40;0.30;;;9.30;99.90;;;;;;4993844;28;20195;-83
2023/12/21 10:46:52;;;;;;;0.30;0.20;;;9.30;99.90;;;;;;4978552;28;20323;-82
2023/12/21 10:49:19;;;;;;;0.30;0.20;;;9.40;99.90;;;;;;4973733;28;20279;-87
2023/12/21 10:51:45;;;;;;;0.32;0.20;;;9.30;99.90;;;;;;4980787;28;20222;-83
2023/12/21 10:54:12;;;;;;;0.30;0.20;;;9.30;99.90;;;;;;4979023;28;20280;-84
2023/12/21 10:56:42;;;;;;;0.43;0.28;;;9.30;99.90;;;;;;4977468;28;20191;-83
2023/12/21 10:59:09;;;;;;;0.40;0.40;;;9.40;99.90;;;;;;4968684;28;20241;-84
2023/12/21 11:01:36;;;;;;;0.40;0.30;;;9.40;99.90;;;;;;4984906;28;20230;-85
2023/12/21 11:04:03;;;;;;;0.40;0.30;;;9.40;99.90;;;;;;4998835;28;20198;-86
2023/12/21 11:06:30;;;;;;;0.50;0.30;;;9.50;99.90;;;;;;4953039;28;20523;-83
2023/12/21 11:08:57;;;;;;;0.30;0.30;;;9.50;99.90;;;;;;4959534;28;20246;-84
2023/12/21 11:11:24;;;;;;;0.30;0.20;;;9.50;99.90;;;;;;4979870;28;20198;-81
2023/12/21 11:13:54;;;;;;;1.85;0.63;;;9.50;99.90;;;;;;4981473;28;21867;-87
2023/12/21 11:16:24;;;;;;;0.30;0.20;;;11.30;99.90;;;;;;4976477;28;20183;-81
2023/12/21 11:18:52;;;;;;;0.40;0.30;;;9.60;99.90;;;;;;4982933;28;20885;-86
2023/12/21 11:21:19;;;;;;;0.40;0.30;;;9.60;99.90;;;;;;4979520;28;20266;-83
2023/12/21 11:23:44;;;;;;;0.30;0.30;;;9.60;99.90;;;;;;4980600;28;20206;-85
2023/12/21 11:26:10;;;;;;;0.40;0.20;;;9.60;99.90;;;;;;4985274;28;20195;-84
2023/12/21 11:28:37;;;;;;;0.30;0.30;;;9.60;99.90;;;;;;4965223;28;20283;-81
2023/12/21 11:31:15;;;;;;;0.30;0.30;;;9.70;99.90;;;;;;4965839;28;21244;-82
2023/12/21 11:33:41;;;;;;;0.40;0.20;;;9.70;99.90;;;;;;4961060;28;21239;-86
2023/12/21 11:36:08;;;;;;;0.40;0.30;;;9.80;99.90;;;;;;4984634;28;20598;-79
2023/12/21 11:38:45;;;;;;;0.40;0.20;;;9.80;99.90;;;;;;4976354;28;20207;-83
2023/12/21 11:41:11;;;;;;;0.40;0.30;;;9.80;99.90;;;;;;4976474;28;20190;-86
2023/12/21 11:43:36;;;;;;;0.30;0.20;;;9.80;99.90;;;;;;4948678;28;20197;-85
2023/12/21 11:46:02;;;;;;;0.30;0.30;;;9.80;99.90;;;;;;4982577;28;20479;-85
2023/12/21 11:48:32;;;;;;;0.30;0.20;;;9.80;99.90;;;;;;4961766;28;20215;-82
2023/12/21 11:51:02;;;;;;;0.40;0.40;;;9.80;99.90;;;;;;4977929;28;20282;-81
2023/12/21 11:53:28;;;;;;;0.30;0.20;;;9.70;99.90;;;;;;4977829;28;20202;-81
2023/12/21 11:55:54;;;;;;;0.40;0.30;;;9.70;99.90;;;;;;4977200;28;20208;-82
2023/12/21 11:58:22;;;;;;;0.40;0.30;;;9.60;99.90;;;;;;5014794;28;20548;-85
2023/12/21 12:00:56;;;;;;;0.30;0.22;;;9.60;99.90;;;;;;4999099;28;20523;-78
2023/12/21 12:03:28;;;;;;;0.40;0.30;;;9.60;99.90;;;;;;5004192;28;20225;-81
2023/12/21 12:06:00;;;;;;;0.30;0.30;;;9.60;99.90;;;;;;4993520;28;20251;-84
2023/12/21 12:08:26;;;;;;;0.30;0.20;;;9.60;99.90;;;;;;4969025;28;20256;-84
2023/12/21 12:10:53;;;;;;;4.47;2.67;;;9.50;99.90;;;;;;4972430;28;20213;-80
2023/12/21 12:13:20;;;;;;;0.40;0.30;;;9.50;99.90;;;;;;4975913;28;20876;-81
2023/12/21 12:15:52;;;;;;;0.30;0.30;;;9.40;99.90;;;;;;4964108;28;20226;-83
2023/12/21 12:18:19;;;;;;;0.65;0.30;;;9.30;99.90;;;;;;4987499;28;20236;-79
2023/12/21 12:20:49;;;;;;;0.30;0.20;;;9.30;99.90;;;;;;4979250;28;20776;-85
2023/12/21 12:23:16;;;;;;;0.50;0.40;;;9.20;99.90;;;;;;4958810;28;20191;-81
2023/12/21 12:25:45;;;;;;;0.30;0.20;;;9.20;99.90;;;;;;4996318;28;20201;-85
2023/12/21 12:28:11;;;;;;;0.57;0.30;;;9.20;99.90;;;;;;4995932;28;20214;-83
2023/12/21 12:30:37;;;;;;;0.40;0.30;;;9.20;99.90;;;;;;4995352;28;20201;-83
2023/12/21 12:33:04;;;;;;;0.80;0.60;;;9.10;99.90;;;;;;4975482;28;20222;-84
2023/12/21 12:35:36;;;;;;;0.30;0.20;;;9.10;99.90;;;;;;4984111;28;20204;-86
2023/12/21 12:38:04;;;;;;;0.30;0.30;;;9.10;99.90;;;;;;4982397;28;20183;-83
2023/12/21 12:40:29;;;;;;;0.40;0.30;;;9.20;99.90;;;;;;4985145;28;20576;-81
2023/12/21 12:42:55;;;;;;;0.30;0.30;;;9.20;99.90;;;;;;4994925;28;20191;-85
2023/12/21 12:45:23;;;;;;;0.40;0.30;;;9.20;99.90;;;;;;4973401;28;20730;-79
2023/12/21 12:47:48;;;;;;;0.30;0.20;;;9.20;99.90;;;;;;4975174;28;20261;-85
2023/12/21 12:50:14;;;;;;;0.30;0.20;;;9.20;99.90;;;;;;4961771;28;20191;-82
2023/12/21 12:52:41;;;;;;;0.40;0.30;;;9.30;99.90;;;;;;4951749;28;20186;-80
2023/12/21 12:55:09;;;;;;;0.30;0.20;;;9.30;99.90;;;;;;4972129;28;20213;-82